Time;durP1;ratioP1;P1;durP2;ratioP2;P2;SDS_P1;SDS_P2;PMS_P1;PMS_P2;Temp;Humidity;BMP_temperature;BMP_pressure;BME280_temperature;BME280_humidity;BME280_pressure;Samples;Min_cycle;Max_cycle;Signal;HPM_P1;HPM_P2
2023/09/05 00:01:50;;;;;;;6.53;4.00;;;;;;;22.67;67.91;100624.88;5094224;28;20931;-60
2023/09/05 00:04:16;;;;;;;6.13;3.67;;;;;;;22.66;68.12;100620.34;5108958;28;20399;-59
2023/09/05 00:06:41;;;;;;;5.10;3.80;;;;;;;22.67;68.17;100621.97;5098057;28;20477;-59
2023/09/05 00:09:07;;;;;;;6.50;4.00;;;;;;;22.65;68.38;100624.44;5070375;28;20177;-60
2023/09/05 00:11:33;;;;;;;5.30;4.00;;;;;;;22.66;68.10;100639.66;5097522;28;20174;-59
2023/09/05 00:14:00;;;;;;;6.30;3.77;;;;;;;22.65;68.42;100618.69;5089011;28;20516;-60
2023/09/05 00:16:26;;;;;;;5.90;3.77;;;;;;;22.65;68.24;100630.22;5088214;28;20233;-60
2023/09/05 00:18:52;;;;;;;8.20;4.50;;;;;;;22.66;68.46;100625.25;5090512;28;20455;-59
2023/09/05 00:21:18;;;;;;;5.07;4.13;;;;;;;22.65;68.03;100618.69;5087084;28;20919;-60
2023/09/05 00:23:44;;;;;;;5.60;4.37;;;;;;;22.65;68.41;100624.44;5090308;28;20517;-59
2023/09/05 00:26:09;;;;;;;5.67;3.60;;;;;;;22.65;68.23;100630.22;5087448;28;20421;-60
2023/09/05 00:28:35;;;;;;;5.40;3.80;;;;;;;22.66;68.33;100623.22;5087547;28;20220;-60
2023/09/05 00:31:01;;;;;;;5.23;3.63;;;;;;;22.65;68.26;100618.69;5099272;28;20184;-59
2023/09/05 00:33:30;;;;;;;5.97;4.40;;;;;;;22.65;68.26;100618.69;5107248;28;20182;-59
2023/09/05 00:35:55;;;;;;;5.90;4.30;;;;;;;22.64;68.31;100611.28;5108098;28;20450;-59
2023/09/05 00:38:24;;;;;;;5.07;3.93;;;;;;;22.66;68.14;100610.88;5107027;28;20436;-60
2023/09/05 00:40:49;;;;;;;6.23;4.20;;;;;;;22.65;68.69;100612.94;5107104;28;20181;-60
2023/09/05 00:43:20;;;;;;;4.70;3.60;;;;;;;22.64;68.60;100611.28;5089999;28;20427;-60
2023/09/05 00:45:49;;;;;;;4.87;3.83;;;;;;;22.64;68.48;100610.47;5096835;28;20170;-59
2023/09/05 00:48:18;;;;;;;5.30;4.23;;;;;;;22.65;68.43;100615.81;5088127;28;20415;-59
2023/09/05 00:50:45;;;;;;;5.40;4.00;;;;;;;22.65;68.56;100618.69;5071527;28;20918;-60
2023/09/05 00:53:11;;;;;;;5.90;4.17;;;;;;;22.64;68.42;100614.16;5101203;28;20433;-60
2023/09/05 00:55:36;;;;;;;5.20;3.90;;;;;;;22.64;68.62;100619.94;5100613;28;20404;-59
2023/09/05 00:58:02;;;;;;;4.80;3.83;;;;;;;22.64;68.61;100617.06;5093206;28;20198;-60
2023/09/05 01:00:38;;;;;;;4.70;3.70;;;;;;;22.65;68.61;100612.09;5089600;28;20174;-60
2023/09/05 01:03:04;;;;;;;6.40;4.47;;;;;;;22.63;68.49;100615.38;5098805;28;20431;-59
2023/09/05 01:05:30;;;;;;;6.10;4.10;;;;;;;22.63;68.65;100608.81;5107670;28;20396;-60
2023/09/05 01:08:12;;;;;;;5.90;4.40;;;;;;;22.63;68.92;100608.81;5076715;28;20162;-60
2023/09/05 01:10:56;;;;;;;5.30;4.00;;;;;;;22.62;68.52;100605.09;5052533;28;20919;-59
2023/09/05 01:13:25;;;;;;;5.13;3.77;;;;;;;22.62;68.66;100602.22;5068314;28;20417;-60
2023/09/05 01:15:52;;;;;;;4.80;3.93;;;;;;;22.62;68.63;100602.22;5086571;28;20459;-59
2023/09/05 01:18:17;;;;;;;5.33;4.20;;;;;;;22.63;68.40;100605.94;5104691;28;20538;-59
2023/09/05 01:21:25;;;;;;;4.80;3.77;;;;;;;22.63;68.94;100615.38;5089233;28;20411;-60
2023/09/05 01:23:58;;;;;;;5.83;4.00;;;;;;;22.62;68.76;100610.03;5103687;28;20181;-59
2023/09/05 01:26:24;;;;;;;6.23;4.57;;;;;;;22.62;69.06;100604.28;5104394;28;20430;-60
2023/09/05 01:28:52;;;;;;;5.90;3.90;;;;;;;22.62;68.74;100605.09;5077070;28;20430;-60
2023/09/05 01:31:17;;;;;;;5.73;3.97;;;;;;;22.62;68.91;100607.97;5071006;28;20179;-60
2023/09/05 01:33:43;;;;;;;5.23;3.70;;;;;;;22.61;68.39;100609.22;5110231;28;20422;-60
2023/09/05 01:36:08;;;;;;;6.30;4.10;;;;;;;22.62;68.79;100598.53;5092617;28;20238;-59
2023/09/05 01:38:34;;;;;;;6.63;3.87;;;;;;;22.61;68.21;100594.81;5094827;28;20206;-60
2023/09/05 01:40:59;;;;;;;6.47;4.27;;;;;;;22.62;68.86;100599.34;5090494;28;20219;-60
2023/09/05 01:43:25;;;;;;;4.50;3.70;;;;;;;22.61;68.84;100597.69;5090469;28;20182;-60
2023/09/05 01:45:50;;;;;;;6.67;4.40;;;;;;;22.61;68.72;100606.31;5090874;28;20174;-60
2023/09/05 01:48:15;;;;;;;6.37;4.57;;;;;;;22.61;68.93;100600.56;5093236;28;20191;-60
2023/09/05 01:50:41;;;;;;;6.80;3.90;;;;;;;22.61;68.57;100597.69;5108649;28;20209;-59
2023/09/05 01:53:06;;;;;;;6.33;4.30;;;;;;;22.60;69.01;100590.28;5096942;28;20181;-60
2023/09/05 01:55:32;;;;;;;6.17;4.10;;;;;;;22.61;68.70;100593.97;5103180;28;20174;-60
2023/09/05 01:57:57;;;;;;;4.40;3.67;;;;;;;22.62;69.10;100589.91;5082214;28;20235;-59
2023/09/05 02:00:23;;;;;;;5.07;3.90;;;;;;;22.60;68.79;100596.03;5091166;28;20174;-59
2023/09/05 02:02:48;;;;;;;5.70;4.13;;;;;;;22.61;68.42;100591.09;5099440;28;20170;-60
2023/09/05 02:05:17;;;;;;;5.50;4.07;;;;;;;22.59;68.85;100591.53;5111463;28;20678;-60
2023/09/05 02:07:42;;;;;;;5.70;4.13;;;;;;;22.61;68.71;100594.81;5111393;28;20170;-59
2023/09/05 02:10:08;;;;;;;9.77;4.33;;;;;;;22.59;68.61;100584.94;5111400;28;20453;-60
2023/09/05 02:12:34;;;;;;;5.30;4.17;;;;;;;22.60;68.96;100592.31;5097553;28;20233;-60
2023/09/05 02:15:00;;;;;;;5.10;4.10;;;;;;;22.60;68.51;100598.09;5111313;28;20177;-59
2023/09/05 02:17:30;;;;;;;5.47;4.03;;;;;;;22.60;68.67;100598.94;5108392;28;20468;-59
2023/09/05 02:19:56;;;;;;;5.23;3.87;;;;;;;22.59;68.64;100594.41;5109733;28;20174;-59
2023/09/05 02:22:21;;;;;;;5.50;4.43;;;;;;;22.59;69.00;100603.03;5110425;28;20897;-60
2023/09/05 02:24:47;;;;;;;5.90;4.20;;;;;;;22.60;68.78;100598.09;5106355;28;20197;-59
2023/09/05 02:27:12;;;;;;;5.63;4.10;;;;;;;22.59;68.84;100600.16;5110826;28;20185;-59
2023/09/05 02:29:38;;;;;;;6.17;4.63;;;;;;;22.58;68.89;100595.59;5108411;28;20181;-60
2023/09/05 02:32:04;;;;;;;5.73;4.30;;;;;;;22.59;68.49;100591.53;5109582;28;20189;-59
2023/09/05 02:34:29;;;;;;;5.40;4.00;;;;;;;22.59;68.78;100597.28;5093836;28;20213;-60
2023/09/05 02:36:55;;;;;;;5.90;4.23;;;;;;;22.58;68.43;100591.91;5089536;28;20553;-59
2023/09/05 02:39:21;;;;;;;4.73;3.87;;;;;;;22.58;68.62;100592.72;5091730;28;20576;-60
2023/09/05 02:41:46;;;;;;;6.33;3.97;;;;;;;22.58;68.70;100594.78;5089212;28;20404;-60
2023/09/05 02:44:12;;;;;;;4.50;3.60;;;;;;;22.58;68.66;100601.34;5089560;28;20866;-60
2023/09/05 02:46:37;;;;;;;5.80;3.87;;;;;;;22.57;68.56;100599.72;5093405;28;20220;-60
2023/09/05 02:49:03;;;;;;;7.33;5.00;;;;;;;22.57;68.92;100593.97;5097077;28;20178;-60
2023/09/05 02:51:28;;;;;;;4.60;3.97;;;;;;;22.58;68.46;100601.34;5090066;28;20182;-60
2023/09/05 02:53:56;;;;;;;4.73;3.80;;;;;;;22.57;68.57;100599.72;5105912;28;20190;-60
2023/09/05 02:56:22;;;;;;;6.03;4.03;;;;;;;22.57;68.70;100599.72;5108330;28;20174;-60
2023/09/05 02:58:48;;;;;;;4.37;3.67;;;;;;;22.57;68.32;100591.09;5088325;28;20447;-60
2023/09/05 03:01:14;;;;;;;8.07;4.40;;;;;;;22.57;68.51;100599.72;5097827;28;20185;-60
2023/09/05 03:03:40;;;;;;;4.80;3.87;;;;;;;22.56;68.77;100592.31;5091365;28;20436;-59
2023/09/05 03:06:12;;;;;;;5.17;3.67;;;;;;;22.57;68.70;100593.16;5085165;28;20439;-59
2023/09/05 03:08:38;;;;;;;7.03;4.07;;;;;;;22.56;68.86;100595.19;5089839;28;20183;-59
2023/09/05 03:11:04;;;;;;;5.87;4.53;;;;;;;22.55;68.53;100599.31;5091435;28;20466;-59
2023/09/05 03:13:29;;;;;;;5.30;3.77;;;;;;;22.56;68.59;100598.06;5078670;28;20499;-59
2023/09/05 03:15:54;;;;;;;5.53;4.40;;;;;;;22.56;68.73;100597.22;5078385;28;20265;-59
2023/09/05 03:18:20;;;;;;;4.87;3.70;;;;;;;22.55;68.43;100599.31;5089796;28;20201;-59
2023/09/05 03:20:46;;;;;;;5.80;4.17;;;;;;;22.55;68.51;100602.19;5088731;28;20182;-60
2023/09/05 03:23:12;;;;;;;5.33;3.60;;;;;;;22.55;68.83;100605.06;5088789;28;20155;-59
2023/09/05 03:25:37;;;;;;;6.13;3.93;;;;;;;22.54;68.85;100600.53;5091351;28;20649;-59
2023/09/05 03:28:03;;;;;;;4.87;3.53;;;;;;;22.54;68.44;100603.41;5088474;28;20420;-60
2023/09/05 03:30:29;;;;;;;6.90;4.67;;;;;;;22.55;68.58;100607.09;5095386;28;20178;-60
2023/09/05 03:32:54;;;;;;;4.63;3.50;;;;;;;22.55;68.27;100619.44;5101165;28;20189;-59
2023/09/05 03:35:20;;;;;;;5.50;4.40;;;;;;;22.54;68.58;100605.44;5108657;28;20285;-59
2023/09/05 03:37:45;;;;;;;6.17;4.43;;;;;;;22.53;68.22;100616.13;5108456;28;20173;-59
2023/09/05 03:40:12;;;;;;;4.60;3.50;;;;;;;22.53;68.22;100603.81;5081235;28;20188;-60
2023/09/05 03:42:37;;;;;;;5.80;4.40;;;;;;;22.53;68.17;100615.31;5109457;28;20208;-60
2023/09/05 03:45:03;;;;;;;5.40;3.47;;;;;;;22.54;68.55;100616.97;5107516;28;20411;-59
2023/09/05 03:47:29;;;;;;;7.20;4.00;;;;;;;22.52;68.13;100613.69;5088854;28;20182;-60
2023/09/05 03:49:54;;;;;;;5.40;3.87;;;;;;;22.53;68.31;100618.19;5090446;28;20198;-60
2023/09/05 03:52:20;;;;;;;5.40;4.30;;;;;;;22.53;68.24;100621.06;5087101;28;20166;-59
2023/09/05 03:54:45;;;;;;;5.00;3.80;;;;;;;22.53;68.25;100615.31;5073239;28;20166;-59
2023/09/05 03:57:10;;;;;;;5.27;3.60;;;;;;;22.52;68.36;100611.59;5102584;28;20189;-59
2023/09/05 03:59:36;;;;;;;5.50;3.87;;;;;;;22.53;68.27;100621.06;5088410;28;20190;-60
2023/09/05 04:02:01;;;;;;;6.57;4.17;;;;;;;22.52;68.11;100613.69;5094372;28;20692;-59
2023/09/05 04:04:27;;;;;;;6.43;4.40;;;;;;;22.52;68.17;100608.72;5109273;28;20539;-59
2023/09/05 04:06:52;;;;;;;4.50;3.60;;;;;;;22.52;68.25;100608.72;5100461;28;20546;-59
2023/09/05 04:09:18;;;;;;;6.07;3.90;;;;;;;22.52;68.36;100616.56;5090729;28;20847;-60
2023/09/05 04:11:43;;;;;;;4.40;3.40;;;;;;;22.51;68.53;100618.59;5089454;28;20178;-60
2023/09/05 04:14:08;;;;;;;4.90;3.80;;;;;;;22.50;67.83;100628.47;5090756;28;20189;-59
2023/09/05 04:16:34;;;;;;;4.27;3.57;;;;;;;22.50;68.49;100625.56;5087832;28;20222;-59
2023/09/05 04:18:59;;;;;;;4.53;3.60;;;;;;;22.50;68.12;100631.34;5069883;28;20213;-59
2023/09/05 04:21:25;;;;;;;4.40;3.50;;;;;;;22.50;68.24;100645.72;5089837;28;20182;-60
2023/09/05 04:23:50;;;;;;;5.60;3.40;;;;;;;22.51;68.02;100643.66;5087429;28;20166;-60
2023/09/05 04:26:16;;;;;;;4.40;3.60;;;;;;;22.50;68.20;100639.97;5089895;28;20178;-59
2023/09/05 04:28:41;;;;;;;5.30;3.90;;;;;;;22.49;67.91;100649.84;5091679;28;20166;-60
2023/09/05 04:31:06;;;;;;;5.30;4.10;;;;;;;22.49;68.22;100649.00;5103887;28;20173;-59
2023/09/05 04:33:37;;;;;;;5.70;3.70;;;;;;;22.48;68.17;100656.78;5103580;28;20170;-59
2023/09/05 04:36:08;;;;;;;5.27;3.80;;;;;;;22.48;68.18;100653.91;5070877;28;20174;-60
2023/09/05 04:38:34;;;;;;;7.00;3.83;;;;;;;22.49;67.93;100658.47;5069762;28;20464;-59
2023/09/05 04:41:02;;;;;;;4.83;3.70;;;;;;;22.50;68.23;100665.03;5090454;28;20436;-59
2023/09/05 04:43:29;;;;;;;5.37;3.73;;;;;;;22.48;67.88;100661.75;5092012;28;20483;-59
2023/09/05 04:45:54;;;;;;;5.33;3.97;;;;;;;22.48;67.89;100659.66;5088266;28;20412;-60
2023/09/05 04:48:20;;;;;;;4.80;3.80;;;;;;;22.48;67.78;100653.91;5088056;28;20454;-59
2023/09/05 04:50:45;;;;;;;4.67;3.53;;;;;;;22.48;67.69;100664.63;5094284;28;20197;-59
2023/09/05 04:53:11;;;;;;;4.80;3.50;;;;;;;22.47;68.23;100663.78;5088497;28;20231;-59
2023/09/05 04:55:36;;;;;;;4.50;3.50;;;;;;;22.47;67.77;100675.28;5102723;28;20181;-60
2023/09/05 04:58:02;;;;;;;5.63;3.60;;;;;;;22.46;67.83;100670.75;5106197;28;20221;-60
2023/09/05 05:00:31;;;;;;;8.40;4.20;;;;;;;22.46;67.89;100673.63;5102573;28;20209;-59
2023/09/05 05:02:57;;;;;;;4.90;4.00;;;;;;;22.46;67.54;100685.16;5101519;28;20190;-59
2023/09/05 05:05:23;;;;;;;5.90;3.87;;;;;;;22.46;67.68;100679.38;5102708;28;20911;-60
2023/09/05 05:07:48;;;;;;;4.90;3.70;;;;;;;22.46;67.64;100685.16;5092472;28;20186;-60
2023/09/05 05:10:14;;;;;;;5.20;3.83;;;;;;;22.46;67.54;100695.81;5095881;28;20204;-58
2023/09/05 05:12:39;;;;;;;5.80;4.23;;;;;;;22.46;67.49;100701.56;5090617;28;20174;-58
2023/09/05 05:15:05;;;;;;;6.17;3.67;;;;;;;22.45;67.88;100695.00;5075214;28;20301;-59
2023/09/05 05:17:31;;;;;;;4.70;3.60;;;;;;;22.45;68.07;100699.94;5109168;28;20225;-59
2023/09/05 05:19:56;;;;;;;5.53;3.80;;;;;;;22.45;67.88;100709.41;5111681;28;20501;-59
2023/09/05 05:22:22;;;;;;;5.00;3.80;;;;;;;22.44;67.85;100701.13;5095481;28;20559;-58
2023/09/05 05:24:48;;;;;;;6.57;4.00;;;;;;;22.44;67.93;100707.75;5091712;28;20158;-58
2023/09/05 05:27:13;;;;;;;6.30;4.20;;;;;;;22.43;67.45;100716.75;5094149;28;20183;-59
2023/09/05 05:29:39;;;;;;;6.30;3.40;;;;;;;22.43;67.42;100714.66;5097940;28;21084;-59
2023/09/05 05:32:04;;;;;;;5.20;3.97;;;;;;;22.43;67.85;100708.91;5111937;28;20551;-59
2023/09/05 05:34:30;;;;;;;4.90;3.87;;;;;;;22.43;67.36;100710.97;5084671;28;20180;-59
2023/09/05 05:36:55;;;;;;;5.67;3.87;;;;;;;22.43;67.63;100708.91;5110947;28;20181;-58
2023/09/05 05:39:22;;;;;;;4.80;3.40;;;;;;;22.43;67.86;100705.22;5111851;28;20350;-59
2023/09/05 05:41:48;;;;;;;5.47;3.60;;;;;;;22.43;67.65;100714.66;5111740;28;20697;-58
2023/09/05 05:44:14;;;;;;;4.13;3.30;;;;;;;22.43;67.80;100708.13;5106811;28;20998;-58
2023/09/05 05:46:41;;;;;;;4.80;3.67;;;;;;;22.42;67.77;100713.03;5091666;28;20440;-58
2023/09/05 05:49:07;;;;;;;5.73;3.67;;;;;;;22.43;67.52;100710.97;5090786;28;20211;-58
2023/09/05 05:51:32;;;;;;;4.70;3.47;;;;;;;22.43;67.75;100708.91;5094095;28;20914;-58
2023/09/05 05:53:58;;;;;;;4.90;3.67;;;;;;;22.43;67.79;100711.78;5094282;28;20419;-58
2023/09/05 05:56:24;;;;;;;5.90;4.30;;;;;;;22.43;67.66;100720.44;5093069;28;20181;-59
2023/09/05 05:58:49;;;;;;;5.10;3.30;;;;;;;22.43;67.57;100720.44;5108051;28;20197;-59
2023/09/05 06:01:15;;;;;;;5.17;3.63;;;;;;;22.41;67.54;100711.38;5111596;28;20189;-58
2023/09/05 06:03:40;;;;;;;5.50;3.67;;;;;;;22.43;67.27;100723.31;5092430;28;20181;-59
2023/09/05 06:06:05;;;;;;;4.80;3.43;;;;;;;22.43;67.24;100719.63;5096004;28;20182;-59
2023/09/05 06:08:31;;;;;;;5.37;3.50;;;;;;;22.41;67.09;100720.00;5072671;28;20174;-58
2023/09/05 06:10:56;;;;;;;4.80;3.23;;;;;;;22.41;67.40;100717.13;5083539;28;20189;-59
2023/09/05 06:13:22;;;;;;;4.13;3.00;;;;;;;22.41;67.15;100720.00;5110102;28;20503;-59
2023/09/05 06:15:47;;;;;;;4.50;3.33;;;;;;;22.41;67.50;100720.00;5103417;28;20233;-59
2023/09/05 06:18:13;;;;;;;4.10;2.93;;;;;;;22.41;67.23;100717.13;5070406;28;20191;-58
2023/09/05 06:20:38;;;;;;;4.60;3.20;;;;;;;22.41;67.38;100716.28;5092265;28;20247;-58
2023/09/05 06:23:04;;;;;;;4.20;3.33;;;;;;;22.41;67.27;100722.03;5089976;28;20209;-58
2023/09/05 06:25:30;;;;;;;4.67;3.80;;;;;;;22.41;67.54;100716.28;5075177;28;20250;-58
2023/09/05 06:27:55;;;;;;;4.30;3.30;;;;;;;22.40;67.26;100727.00;5092612;28;20960;-59
2023/09/05 06:30:22;;;;;;;4.10;2.87;;;;;;;22.41;67.41;100719.16;5072742;28;20190;-58
2023/09/05 06:32:48;;;;;;;4.50;3.17;;;;;;;22.39;67.39;100725.34;5108474;28;20185;-59
2023/09/05 06:35:13;;;;;;;4.00;3.07;;;;;;;22.39;67.06;100725.34;5110801;28;20785;-58
2023/09/05 06:37:38;;;;;;;5.63;4.20;;;;;;;22.39;67.33;100722.47;5082165;28;20178;-58
2023/09/05 06:40:15;;;;;;;4.37;3.00;;;;;;;22.39;67.35;100722.47;5090651;28;20213;-59
2023/09/05 06:42:43;;;;;;;4.43;3.50;;;;;;;22.39;67.29;100718.75;5092955;28;20213;-59
2023/09/05 06:45:09;;;;;;;4.80;3.50;;;;;;;22.38;66.91;100723.66;5090565;28;20490;-59
2023/09/05 06:47:34;;;;;;;5.70;3.40;;;;;;;22.39;66.96;100725.34;5105713;28;20427;-59
2023/09/05 06:50:00;;;;;;;5.27;3.30;;;;;;;22.39;67.00;100724.50;5101669;28;20205;-58
2023/09/05 06:52:26;;;;;;;5.60;3.83;;;;;;;22.38;67.34;100726.53;5104094;28;20188;-58
2023/09/05 06:54:52;;;;;;;5.17;3.53;;;;;;;22.38;67.39;100719.97;5105617;28;20614;-58
2023/09/05 06:57:17;;;;;;;4.83;3.20;;;;;;;22.39;66.87;100724.50;5075639;28;20287;-59
2023/09/05 06:59:43;;;;;;;4.50;3.70;;;;;;;22.38;67.59;100729.41;5076921;28;20829;-58
2023/09/05 07:02:08;;;;;;;5.27;3.40;;;;;;;22.39;67.25;100727.38;5095506;28;20187;-59
2023/09/05 07:04:34;;;;;;;8.87;3.47;;;;;;;22.37;66.99;100727.78;5090637;28;20201;-58
2023/09/05 07:07:01;;;;;;;4.20;3.30;;;;;;;22.39;67.29;100736.03;5075949;28;20907;-58
2023/09/05 07:09:27;;;;;;;4.73;3.53;;;;;;;22.39;67.02;100730.25;5090700;28;20971;-58
2023/09/05 07:11:52;;;;;;;5.43;3.23;;;;;;;22.38;67.03;100729.41;5090952;28;20428;-59
2023/09/05 07:14:18;;;;;;;5.70;3.90;;;;;;;22.39;67.01;100724.50;5100129;28;20520;-59
2023/09/05 07:16:43;;;;;;;4.63;3.43;;;;;;;22.39;66.96;100730.25;5107674;28;20225;-58
2023/09/05 07:19:09;;;;;;;5.23;4.10;;;;;;;22.39;67.28;100728.22;5108893;28;20256;-58
2023/09/05 07:21:37;;;;;;;5.07;3.43;;;;;;;22.39;67.20;100731.09;5107924;28;20188;-58
2023/09/05 07:24:03;;;;;;;4.50;3.40;;;;;;;22.39;66.92;100730.25;5091830;28;20182;-59
2023/09/05 07:26:28;;;;;;;4.30;3.03;;;;;;;22.39;67.32;100724.50;5092356;28;20444;-58
2023/09/05 07:28:54;;;;;;;4.10;2.90;;;;;;;22.37;66.91;100724.09;5089511;28;20190;-59
2023/09/05 07:31:19;;;;;;;5.37;3.57;;;;;;;22.35;67.37;100730.25;5091105;28;20189;-58
2023/09/05 07:33:45;;;;;;;5.23;3.40;;;;;;;22.35;67.20;100727.34;5108679;28;20958;-58
2023/09/05 07:36:10;;;;;;;4.33;3.37;;;;;;;22.37;66.99;100724.91;5108648;28;20611;-58
2023/09/05 07:38:36;;;;;;;6.43;3.53;;;;;;;22.38;67.31;100717.91;5098460;28;20202;-58
2023/09/05 07:41:04;;;;;;;4.97;3.20;;;;;;;22.38;66.64;100723.66;5088595;28;20178;-59
2023/09/05 07:43:30;;;;;;;5.43;3.53;;;;;;;22.39;66.89;100725.34;5090691;28;20189;-58
2023/09/05 07:45:56;;;;;;;4.40;3.10;;;;;;;22.39;66.76;100721.63;5090441;28;20432;-58
2023/09/05 07:48:21;;;;;;;4.30;3.30;;;;;;;22.38;67.35;100729.41;5089397;28;20159;-59
2023/09/05 07:50:47;;;;;;;4.17;3.03;;;;;;;22.38;66.97;100729.41;5089002;28;20201;-58
2023/09/05 07:53:13;;;;;;;5.50;3.20;;;;;;;22.39;67.11;100730.25;5091797;28;20197;-59
2023/09/05 07:55:38;;;;;;;4.33;3.47;;;;;;;22.39;66.75;100727.38;5102170;28;20181;-58
2023/09/05 07:58:04;;;;;;;7.00;3.53;;;;;;;22.39;67.18;100724.50;5108716;28;20944;-60
2023/09/05 08:00:29;;;;;;;8.30;4.30;;;;;;;22.38;67.08;100729.41;5105941;28;20662;-59
2023/09/05 08:02:55;;;;;;;9.63;3.83;;;;;;;22.39;67.13;100736.84;5100466;28;20177;-59
2023/09/05 08:05:21;;;;;;;5.23;3.57;;;;;;;22.39;67.18;100731.09;5109013;28;20181;-58
2023/09/05 08:07:46;;;;;;;4.50;3.27;;;;;;;22.39;66.46;100736.84;5097449;28;20182;-59
2023/09/05 08:10:12;;;;;;;5.43;3.40;;;;;;;22.39;66.97;100730.25;5088690;28;20420;-58
2023/09/05 08:12:37;;;;;;;5.70;3.50;;;;;;;22.39;67.14;100731.09;5091250;28;20182;-59
2023/09/05 08:15:05;;;;;;;5.33;3.40;;;;;;;22.39;67.14;100728.22;5088853;28;20247;-58
2023/09/05 08:17:31;;;;;;;6.20;3.57;;;;;;;22.39;67.23;100731.09;5088605;28;20232;-58
2023/09/05 08:19:57;;;;;;;3.97;2.97;;;;;;;22.39;67.19;100733.13;5091259;28;20555;-59
2023/09/05 08:22:22;;;;;;;4.40;3.20;;;;;;;22.39;67.01;100733.13;5087886;28;20182;-58
2023/09/05 08:24:48;;;;;;;4.10;3.20;;;;;;;22.39;66.85;100736.03;5090883;28;20173;-59
2023/09/05 08:27:13;;;;;;;5.13;3.30;;;;;;;22.39;67.26;100739.72;5069434;28;20626;-59
2023/09/05 08:29:39;;;;;;;4.53;3.07;;;;;;;22.39;67.50;100745.50;5090622;28;20182;-59
2023/09/05 08:32:04;;;;;;;3.67;2.70;;;;;;;22.39;67.22;100744.66;5093794;28;20184;-59
2023/09/05 08:34:30;;;;;;;4.67;3.43;;;;;;;22.40;67.30;100749.16;5098964;28;20212;-59
2023/09/05 08:36:58;;;;;;;4.93;3.23;;;;;;;22.40;67.18;100746.28;5088225;28;20243;-59
2023/09/05 08:39:23;;;;;;;4.30;2.87;;;;;;;22.39;66.99;100739.72;5088938;28;20190;-58
2023/09/05 08:41:49;;;;;;;4.97;2.97;;;;;;;22.39;67.11;100736.84;5089820;28;20486;-59
2023/09/05 08:44:15;;;;;;;5.93;3.50;;;;;;;22.40;67.02;100732.75;5092840;28;20184;-58
2023/09/05 08:46:40;;;;;;;5.67;3.13;;;;;;;22.39;66.94;100728.22;5108021;28;20162;-59
2023/09/05 08:49:06;;;;;;;4.53;3.00;;;;;;;22.41;67.36;100733.56;5104256;28;20740;-59
2023/09/05 08:51:32;;;;;;;4.57;3.07;;;;;;;22.40;67.22;100717.53;5087899;28;20178;-59
2023/09/05 08:53:59;;;;;;;4.80;3.10;;;;;;;22.40;67.07;100720.41;5083413;28;20239;-59
2023/09/05 08:56:25;;;;;;;4.30;2.90;;;;;;;22.41;66.93;100717.13;5103818;28;20470;-59
2023/09/05 08:58:55;;;;;;;5.70;3.50;;;;;;;22.41;66.88;100717.13;5104438;28;20510;-59
2023/09/05 09:01:20;;;;;;;4.40;2.80;;;;;;;22.41;66.88;100725.75;5082371;28;20185;-59
2023/09/05 09:03:46;;;;;;;5.97;3.13;;;;;;;22.43;66.81;100717.56;5094989;28;20488;-60
2023/09/05 09:06:12;;;;;;;4.30;3.20;;;;;;;22.43;67.09;100713.88;5107435;28;20166;-59
2023/09/05 09:08:41;;;;;;;4.90;3.00;;;;;;;22.44;66.88;100707.75;5107510;28;20448;-59
2023/09/05 09:11:07;;;;;;;5.63;3.00;;;;;;;22.43;67.52;100714.66;5101197;28;20177;-59
2023/09/05 09:13:32;;;;;;;4.60;3.23;;;;;;;22.42;67.11;100713.03;5090198;28;20416;-59
2023/09/05 09:16:02;;;;;;;4.50;3.23;;;;;;;22.44;67.32;100715.50;5094130;28;20232;-59
2023/09/05 09:18:31;;;;;;;9.90;3.30;;;;;;;22.45;66.66;100720.91;5108498;28;20569;-59
2023/09/05 09:20:59;;;;;;;5.07;3.40;;;;;;;22.45;67.00;100735.28;5108197;28;20424;-59
2023/09/05 09:23:28;;;;;;;4.70;3.27;;;;;;;22.46;67.10;100730.34;5104478;28;20439;-59
2023/09/05 09:25:54;;;;;;;4.30;2.60;;;;;;;22.46;67.67;100727.47;5089932;28;20411;-59
2023/09/05 09:28:31;;;;;;;5.33;3.27;;;;;;;22.46;67.11;100728.31;5086470;28;21029;-59
2023/09/05 09:31:13;;;;;;;5.77;3.10;;;;;;;22.47;67.39;100718.44;5091145;28;20534;-59
2023/09/05 09:33:38;;;;;;;4.77;3.30;;;;;;;22.47;66.96;100714.75;5107610;28;20431;-59
2023/09/05 09:36:08;;;;;;;4.90;3.00;;;;;;;22.48;67.04;100717.22;5081951;28;20454;-59
2023/09/05 09:38:34;;;;;;;5.90;3.20;;;;;;;22.47;68.07;100703.25;5105124;28;20213;-58
2023/09/05 09:41:01;;;;;;;5.23;3.10;;;;;;;22.47;68.23;100698.31;5107940;28;20441;-59
2023/09/05 09:43:30;;;;;;;3.50;2.90;;;;;;;22.47;67.33;100701.19;5103334;28;20182;-59
2023/09/05 09:45:59;;;;;;;4.27;3.13;;;;;;;22.48;67.33;100705.69;5108338;28;20400;-59
2023/09/05 09:48:28;;;;;;;6.63;3.50;;;;;;;22.49;67.26;100701.63;5108230;28;20936;-59
2023/09/05 09:50:55;;;;;;;5.67;3.37;;;;;;;22.49;66.99;100695.03;5107786;28;20443;-59
2023/09/05 09:53:40;;;;;;;5.10;2.93;;;;;;;22.49;67.10;100695.88;5094518;28;20445;-59
2023/09/05 09:56:12;;;;;;;7.40;3.40;;;;;;;22.49;67.00;100690.13;5091282;28;20415;-60
2023/09/05 09:58:42;;;;;;;4.87;2.90;;;;;;;22.49;67.30;100695.88;5102871;28;20460;-59
2023/09/05 10:01:12;;;;;;;6.10;3.30;;;;;;;22.49;67.76;100698.75;5090571;28;20438;-58
2023/09/05 10:03:38;;;;;;;5.13;3.20;;;;;;;22.51;67.33;100686.81;5091675;28;20481;-59
2023/09/05 10:06:04;;;;;;;6.07;3.37;;;;;;;22.50;67.55;100686.00;5110520;28;20408;-59
2023/09/05 10:08:33;;;;;;;5.03;3.03;;;;;;;22.50;67.50;100683.13;5109996;28;20564;-60
2023/09/05 10:10:59;;;;;;;6.13;3.20;;;;;;;22.51;67.27;100684.78;5106747;28;20194;-59
2023/09/05 10:13:27;;;;;;;5.80;3.17;;;;;;;22.50;67.50;100686.00;5082222;28;20443;-59
2023/09/05 10:15:54;;;;;;;5.40;3.10;;;;;;;22.50;67.80;100679.41;5056404;28;20233;-60
2023/09/05 10:18:19;;;;;;;5.07;2.80;;;;;;;22.51;67.38;100681.06;5091500;28;20507;-59
2023/09/05 10:20:46;;;;;;;4.50;2.80;;;;;;;22.50;67.77;100680.25;5077669;28;20415;-58
2023/09/05 10:23:11;;;;;;;5.20;3.23;;;;;;;22.52;67.12;100676.97;5091147;28;20174;-59
2023/09/05 10:25:37;;;;;;;4.67;2.80;;;;;;;22.50;67.28;100668.75;5076791;28;20434;-59
2023/09/05 10:28:03;;;;;;;4.23;2.63;;;;;;;22.50;67.68;100668.75;5090400;28;20189;-59
2023/09/05 10:30:29;;;;;;;5.17;3.27;;;;;;;22.50;67.45;100674.50;5071392;28;20159;-59
2023/09/05 10:32:55;;;;;;;3.90;2.53;;;;;;;22.50;67.58;100671.63;5103106;28;20973;-59
2023/09/05 10:35:22;;;;;;;3.60;2.23;;;;;;;22.50;67.96;100674.50;5074704;28;20602;-59
2023/09/05 10:37:52;;;;;;;6.27;2.83;;;;;;;22.52;67.38;100666.28;5107983;28;20458;-58
2023/09/05 10:40:18;;;;;;;5.47;3.40;;;;;;;22.51;68.17;100664.63;5087677;28;20589;-59
2023/09/05 10:42:51;;;;;;;4.70;3.07;;;;;;;22.52;68.11;100665.47;5090316;28;20425;-59
2023/09/05 10:45:22;;;;;;;7.50;2.80;;;;;;;22.52;67.82;100665.47;5097568;28;20417;-59
2023/09/05 10:47:54;;;;;;;5.80;3.10;;;;;;;22.52;68.20;100666.28;5097997;28;20435;-59
2023/09/05 10:50:20;;;;;;;4.70;3.00;;;;;;;22.52;67.77;100674.91;5084991;28;20459;-60
2023/09/05 10:52:51;;;;;;;4.07;2.70;;;;;;;22.52;67.96;100669.16;5105956;28;20462;-59
2023/09/05 10:55:29;;;;;;;4.57;2.93;;;;;;;22.53;68.03;100659.28;5098565;28;20480;-59
2023/09/05 10:57:58;;;;;;;4.53;2.90;;;;;;;22.54;67.77;100666.72;5098635;28;20921;-60
2023/09/05 11:00:26;;;;;;;8.80;3.23;;;;;;;22.53;68.03;100656.41;5101289;28;20431;-60
2023/09/05 11:02:53;;;;;;;6.33;2.83;;;;;;;22.54;67.60;100649.47;5098679;28;20486;-60
2023/09/05 11:05:19;;;;;;;3.53;2.90;;;;;;;22.54;67.95;100649.47;5101746;28;20517;-59
2023/09/05 11:07:48;;;;;;;5.70;2.70;;;;;;;22.56;67.63;100638.38;5103935;28;20904;-60
2023/09/05 11:10:33;;;;;;;4.37;2.90;;;;;;;22.56;67.92;100635.47;5098092;28;20174;-59
2023/09/05 11:13:10;;;;;;;5.23;3.03;;;;;;;22.55;67.78;100630.97;5072626;28;20423;-59
2023/09/05 11:15:36;;;;;;;5.33;3.20;;;;;;;22.55;68.22;100628.09;5096737;28;20520;-59
2023/09/05 11:18:06;;;;;;;4.47;2.73;;;;;;;22.57;68.26;100621.94;5100125;28;20518;-59
2023/09/05 11:20:46;;;;;;;5.40;3.10;;;;;;;22.57;68.47;100619.88;5107017;28;20443;-59
2023/09/05 11:23:20;;;;;;;4.70;2.90;;;;;;;22.58;68.34;100621.50;5097257;28;20661;-59